sensor_id;sensor_type;location;lat;lon;timestamp;pressure;altitude;pressure_sealevel;temperature;humidity
29169;BME280;16219;42.864;23.360;2023-02-26T00:01:36;94700.31;;;13.29;84.34
29169;BME280;16219;42.864;23.360;2023-02-26T00:04:06;94692.72;;;13.28;85.51
29169;BME280;16219;42.864;23.360;2023-02-26T00:06:34;94686.69;;;13.27;85.29
29169;BME280;16219;42.864;23.360;2023-02-26T00:09:02;94684.97;;;13.38;82.88
29169;BME280;16219;42.864;23.360;2023-02-26T00:11:32;94683.72;;;13.32;82.76
29169;BME280;16219;42.864;23.360;2023-02-26T00:13:59;94676.03;;;13.23;81.25
29169;BME280;16219;42.864;23.360;2023-02-26T00:16:30;94673.72;;;13.22;82.98
29169;BME280;16219;42.864;23.360;2023-02-26T00:18:58;94669.25;;;13.26;82.09
29169;BME280;16219;42.864;23.360;2023-02-26T00:21:27;94629.41;;;12.96;83.88
29169;BME280;16219;42.864;23.360;2023-02-26T00:23:55;94646.97;;;13.08;83.56
29169;BME280;16219;42.864;23.360;2023-02-26T00:26:24;94650.88;;;13.14;82.00
29169;BME280;16219;42.864;23.360;2023-02-26T00:28:52;94640.34;;;12.94;82.54
29169;BME280;16219;42.864;23.360;2023-02-26T00:31:19;94653.84;;;13.12;80.05
29169;BME280;16219;42.864;23.360;2023-02-26T00:33:51;94649.38;;;13.16;80.39
29169;BME280;16219;42.864;23.360;2023-02-26T00:36:22;94636.94;;;13.17;80.09
29169;BME280;16219;42.864;23.360;2023-02-26T00:39:00;94625.03;;;13.07;79.82
29169;BME280;16219;42.864;23.360;2023-02-26T00:41:29;94634.56;;;13.12;79.84
29169;BME280;16219;42.864;23.360;2023-02-26T00:43:57;94589.13;;;12.83;78.96
29169;BME280;16219;42.864;23.360;2023-02-26T00:46:32;94623.88;;;13.05;79.90
29169;BME280;16219;42.864;23.360;2023-02-26T00:49:06;94619.09;;;13.14;76.88
29169;BME280;16219;42.864;23.360;2023-02-26T00:51:41;94619.44;;;13.12;79.19
29169;BME280;16219;42.864;23.360;2023-02-26T00:54:17;94607.69;;;13.10;78.09
29169;BME280;16219;42.864;23.360;2023-02-26T00:56:45;94612.91;;;13.06;79.35
29169;BME280;16219;42.864;23.360;2023-02-26T00:59:12;94615.63;;;13.10;78.84
29169;BME280;16219;42.864;23.360;2023-02-26T01:01:39;94592.19;;;13.12;77.87
29169;BME280;16219;42.864;23.360;2023-02-26T01:04:09;94600.88;;;13.09;78.10
29169;BME280;16219;42.864;23.360;2023-02-26T01:06:41;94608.38;;;13.07;76.38
29169;BME280;16219;42.864;23.360;2023-02-26T01:09:14;94593.31;;;13.11;75.34
29169;BME280;16219;42.864;23.360;2023-02-26T01:11:43;94603.22;;;13.14;75.12
29169;BME280;16219;42.864;23.360;2023-02-26T01:14:10;94595.97;;;13.11;75.95
29169;BME280;16219;42.864;23.360;2023-02-26T01:16:43;94596.41;;;13.16;74.60
29169;BME280;16219;42.864;23.360;2023-02-26T01:19:19;94580.91;;;13.15;74.95
29169;BME280;16219;42.864;23.360;2023-02-26T01:21:54;94580.19;;;13.18;72.61
29169;BME280;16219;42.864;23.360;2023-02-26T01:24:24;94579.78;;;13.16;72.08
29169;BME280;16219;42.864;23.360;2023-02-26T01:26:52;94584.31;;;13.15;73.35
29169;BME280;16219;42.864;23.360;2023-02-26T01:29:19;94581.66;;;13.15;73.46
29169;BME280;16219;42.864;23.360;2023-02-26T01:31:51;94578.13;;;13.08;73.43
29169;BME280;16219;42.864;23.360;2023-02-26T01:34:25;94582.34;;;13.09;75.95
29169;BME280;16219;42.864;23.360;2023-02-26T01:36:57;94574.63;;;13.23;70.88
29169;BME280;16219;42.864;23.360;2023-02-26T01:39:30;94569.59;;;13.18;72.02
29169;BME280;16219;42.864;23.360;2023-02-26T01:42:06;94563.00;;;13.08;70.67
29169;BME280;16219;42.864;23.360;2023-02-26T01:44:41;94569.91;;;13.13;70.00
29169;BME280;16219;42.864;23.360;2023-02-26T01:47:16;94569.44;;;13.07;69.28
29169;BME280;16219;42.864;23.360;2023-02-26T01:49:48;94563.69;;;13.01;69.78
29169;BME280;16219;42.864;23.360;2023-02-26T01:55:28;94549.81;;;13.12;67.97
29169;BME280;16219;42.864;23.360;2023-02-26T01:57:58;94540.97;;;13.00;68.42
29169;BME280;16219;42.864;23.360;2023-02-26T02:00:26;94553.91;;;13.06;68.75
29169;BME280;16219;42.864;23.360;2023-02-26T02:02:53;94552.28;;;12.97;69.22
29169;BME280;16219;42.864;23.360;2023-02-26T02:05:30;94546.97;;;12.97;67.52
29169;BME280;16219;42.864;23.360;2023-02-26T02:07:58;94560.91;;;12.94;66.74
29169;BME280;16219;42.864;23.360;2023-02-26T02:10:26;94564.13;;;13.07;66.30
29169;BME280;16219;42.864;23.360;2023-02-26T02:12:59;94574.09;;;13.14;66.55
29169;BME280;16219;42.864;23.360;2023-02-26T02:15:36;94569.72;;;13.02;67.22
29169;BME280;16219;42.864;23.360;2023-02-26T02:18:10;94579.19;;;13.03;65.37
29169;BME280;16219;42.864;23.360;2023-02-26T02:20:58;94575.47;;;13.08;63.84
29169;BME280;16219;42.864;23.360;2023-02-26T02:23:36;94570.00;;;13.20;64.11
29169;BME280;16219;42.864;23.360;2023-02-26T02:26:31;94559.25;;;13.09;61.63
29169;BME280;16219;42.864;23.360;2023-02-26T02:32:07;94573.25;;;13.10;64.22
29169;BME280;16219;42.864;23.360;2023-02-26T02:34:38;94578.19;;;13.11;62.14
29169;BME280;16219;42.864;23.360;2023-02-26T02:37:12;94573.38;;;12.94;65.23
29169;BME280;16219;42.864;23.360;2023-02-26T02:39:42;94577.53;;;12.91;63.12
29169;BME280;16219;42.864;23.360;2023-02-26T02:42:20;94565.00;;;12.88;62.40
29169;BME280;16219;42.864;23.360;2023-02-26T02:44:53;94578.75;;;12.97;63.45
29169;BME280;16219;42.864;23.360;2023-02-26T02:47:24;94566.94;;;12.91;62.39
29169;BME280;16219;42.864;23.360;2023-02-26T02:49:58;94568.22;;;13.01;61.77
29169;BME280;16219;42.864;23.360;2023-02-26T02:52:30;94555.28;;;12.96;60.64
29169;BME280;16219;42.864;23.360;2023-02-26T02:55:02;94560.03;;;13.10;61.21
29169;BME280;16219;42.864;23.360;2023-02-26T02:57:34;94555.53;;;13.14;61.96
29169;BME280;16219;42.864;23.360;2023-02-26T03:00:05;94568.09;;;13.17;62.09
29169;BME280;16219;42.864;23.360;2023-02-26T03:02:42;94564.84;;;13.27;59.96
29169;BME280;16219;42.864;23.360;2023-02-26T03:05:13;94586.66;;;13.20;60.76
29169;BME280;16219;42.864;23.360;2023-02-26T03:07:44;94576.81;;;13.21;60.85
29169;BME280;16219;42.864;23.360;2023-02-26T03:10:14;94576.72;;;13.14;60.92
29169;BME280;16219;42.864;23.360;2023-02-26T03:12:41;94561.91;;;13.09;59.19
29169;BME280;16219;42.864;23.360;2023-02-26T03:15:09;94572.91;;;13.11;62.60
29169;BME280;16219;42.864;23.360;2023-02-26T03:17:45;94578.75;;;12.97;63.34
29169;BME280;16219;42.864;23.360;2023-02-26T03:20:20;94577.72;;;12.79;62.34
29169;BME280;16219;42.864;23.360;2023-02-26T03:22:58;94576.41;;;12.92;62.32
29169;BME280;16219;42.864;23.360;2023-02-26T03:25:30;94568.69;;;12.84;61.94
29169;BME280;16219;42.864;23.360;2023-02-26T03:28:07;94573.22;;;12.83;62.24
29169;BME280;16219;42.864;23.360;2023-02-26T03:30:38;94559.34;;;12.67;62.51
29169;BME280;16219;42.864;23.360;2023-02-26T03:33:14;94572.09;;;12.84;60.99
29169;BME280;16219;42.864;23.360;2023-02-26T03:35:48;94564.50;;;12.83;63.35
29169;BME280;16219;42.864;23.360;2023-02-26T03:38:23;94553.47;;;12.77;62.70
29169;BME280;16219;42.864;23.360;2023-02-26T03:40:58;94558.06;;;12.80;61.85
29169;BME280;16219;42.864;23.360;2023-02-26T03:43:35;94541.41;;;12.57;62.89
29169;BME280;16219;42.864;23.360;2023-02-26T03:46:08;94569.34;;;12.77;61.28
29169;BME280;16219;42.864;23.360;2023-02-26T03:48:38;94572.94;;;12.88;58.76
29169;BME280;16219;42.864;23.360;2023-02-26T03:51:09;94577.78;;;13.09;59.10
29169;BME280;16219;42.864;23.360;2023-02-26T03:54:02;94577.03;;;13.09;58.15
29169;BME280;16219;42.864;23.360;2023-02-26T03:56:38;94562.91;;;12.78;58.75
29169;BME280;16219;42.864;23.360;2023-02-26T03:59:24;94576.97;;;13.05;56.61
29169;BME280;16219;42.864;23.360;2023-02-26T04:02:10;94562.41;;;12.92;56.80
29169;BME280;16219;42.864;23.360;2023-02-26T04:04:45;94568.56;;;12.99;56.10
29169;BME280;16219;42.864;23.360;2023-02-26T04:07:15;94576.09;;;12.97;57.33
29169;BME280;16219;42.864;23.360;2023-02-26T04:09:43;94561.03;;;13.01;59.59
29169;BME280;16219;42.864;23.360;2023-02-26T04:12:11;94568.56;;;12.99;57.82
29169;BME280;16219;42.864;23.360;2023-02-26T04:14:43;94566.44;;;13.09;57.60
29169;BME280;16219;42.864;23.360;2023-02-26T04:17:10;94561.34;;;12.96;56.21
29169;BME280;16219;42.864;23.360;2023-02-26T04:19:37;94561.53;;;13.11;56.01
29169;BME280;16219;42.864;23.360;2023-02-26T04:22:06;94555.53;;;13.14;57.23
29169;BME280;16219;42.864;23.360;2023-02-26T04:24:33;94555.78;;;13.28;55.50
29169;BME280;16219;42.864;23.360;2023-02-26T04:27:01;94548.94;;;13.27;55.83
29169;BME280;16219;42.864;23.360;2023-02-26T04:29:29;94551.19;;;13.25;55.93
29169;BME280;16219;42.864;23.360;2023-02-26T04:31:56;94540.34;;;13.11;55.60
29169;BME280;16219;42.864;23.360;2023-02-26T04:34:24;94539.75;;;13.21;56.61
29169;BME280;16219;42.864;23.360;2023-02-26T04:36:51;94547.94;;;13.12;56.57
29169;BME280;16219;42.864;23.360;2023-02-26T04:39:20;94537.47;;;13.19;56.34
29169;BME280;16219;42.864;23.360;2023-02-26T04:41:47;94527.13;;;13.11;57.40
29169;BME280;16219;42.864;23.360;2023-02-26T04:44:14;94540.03;;;12.89;59.49
29169;BME280;16219;42.864;23.360;2023-02-26T04:46:41;94542.22;;;12.84;58.57
29169;BME280;16219;42.864;23.360;2023-02-26T04:49:09;94527.81;;;12.81;57.70
29169;BME280;16219;42.864;23.360;2023-02-26T04:51:39;94529.88;;;12.91;58.78
29169;BME280;16219;42.864;23.360;2023-02-26T04:54:07;94524.38;;;13.04;57.47
29169;BME280;16219;42.864;23.360;2023-02-26T04:56:36;94522.53;;;13.08;56.89
29169;BME280;16219;42.864;23.360;2023-02-26T04:59:05;94528.03;;;12.95;57.87
29169;BME280;16219;42.864;23.360;2023-02-26T05:01:33;94528.75;;;12.92;57.87
29169;BME280;16219;42.864;23.360;2023-02-26T05:04:00;94502.97;;;12.89;58.08
29169;BME280;16219;42.864;23.360;2023-02-26T05:06:28;94527.50;;;13.09;58.20
29169;BME280;16219;42.864;23.360;2023-02-26T05:08:55;94525.19;;;13.08;57.11
29169;BME280;16219;42.864;23.360;2023-02-26T05:11:22;94517.28;;;13.11;57.99
29169;BME280;16219;42.864;23.360;2023-02-26T05:13:50;94514.56;;;13.04;58.01
29169;BME280;16219;42.864;23.360;2023-02-26T05:16:17;94522.50;;;13.04;58.04
29169;BME280;16219;42.864;23.360;2023-02-26T05:18:44;94532.84;;;13.13;57.29
29169;BME280;16219;42.864;23.360;2023-02-26T05:21:11;94508.41;;;12.96;57.50
29169;BME280;16219;42.864;23.360;2023-02-26T05:23:38;94527.94;;;13.15;57.55
29169;BME280;16219;42.864;23.360;2023-02-26T05:26:06;94535.13;;;13.14;56.88
29169;BME280;16219;42.864;23.360;2023-02-26T05:28:33;94524.97;;;13.20;56.58
29169;BME280;16219;42.864;23.360;2023-02-26T05:31:02;94523.16;;;13.24;55.65
29169;BME280;16219;42.864;23.360;2023-02-26T05:33:29;94517.94;;;13.28;54.61
29169;BME280;16219;42.864;23.360;2023-02-26T05:35:56;94524.78;;;13.32;54.70
29169;BME280;16219;42.864;23.360;2023-02-26T05:38:23;94513.06;;;13.30;55.65
29169;BME280;16219;42.864;23.360;2023-02-26T05:40:55;94518.69;;;13.28;54.71
29169;BME280;16219;42.864;23.360;2023-02-26T05:43:22;94503.94;;;13.27;54.42
29169;BME280;16219;42.864;23.360;2023-02-26T05:45:49;94525.28;;;13.41;53.90
29169;BME280;16219;42.864;23.360;2023-02-26T05:48:18;94532.59;;;13.48;52.18
29169;BME280;16219;42.864;23.360;2023-02-26T05:50:46;94522.28;;;13.73;51.76
29169;BME280;16219;42.864;23.360;2023-02-26T05:53:13;94519.22;;;13.71;51.67
29169;BME280;16219;42.864;23.360;2023-02-26T05:55:40;94524.53;;;13.71;50.92
29169;BME280;16219;42.864;23.360;2023-02-26T05:58:08;94519.28;;;13.74;51.21
29169;BME280;16219;42.864;23.360;2023-02-26T06:00:36;94519.31;;;13.78;51.02
29169;BME280;16219;42.864;23.360;2023-02-26T06:03:03;94522.28;;;13.73;51.60
29169;BME280;16219;42.864;23.360;2023-02-26T06:05:32;94521.22;;;13.78;51.27
29169;BME280;16219;42.864;23.360;2023-02-26T06:08:01;94529.03;;;13.67;51.05
29169;BME280;16219;42.864;23.360;2023-02-26T06:10:28;94535.31;;;13.85;49.95
29169;BME280;16219;42.864;23.360;2023-02-26T06:12:55;94541.81;;;13.91;50.42
29169;BME280;16219;42.864;23.360;2023-02-26T06:15:22;94521.69;;;13.87;50.17
29169;BME280;16219;42.864;23.360;2023-02-26T06:17:49;94517.94;;;13.91;49.44
29169;BME280;16219;42.864;23.360;2023-02-26T06:20:17;94529.44;;;14.03;49.00
29169;BME280;16219;42.864;23.360;2023-02-26T06:22:45;94542.81;;;14.13;49.40
29169;BME280;16219;42.864;23.360;2023-02-26T06:25:12;94553.13;;;14.22;49.05
29169;BME280;16219;42.864;23.360;2023-02-26T06:27:39;94536.16;;;14.30;48.03
29169;BME280;16219;42.864;23.360;2023-02-26T06:30:13;94565.34;;;14.30;49.37
29169;BME280;16219;42.864;23.360;2023-02-26T06:32:40;94543.78;;;14.35;48.12
29169;BME280;16219;42.864;23.360;2023-02-26T06:35:08;94549.28;;;14.49;47.99
29169;BME280;16219;42.864;23.360;2023-02-26T06:37:35;94560.00;;;14.64;47.88
29169;BME280;16219;42.864;23.360;2023-02-26T06:40:05;94553.31;;;14.77;47.38
29169;BME280;16219;42.864;23.360;2023-02-26T06:42:32;94552.56;;;14.80;46.59
29169;BME280;16219;42.864;23.360;2023-02-26T06:45:00;94556.88;;;14.95;45.61
29169;BME280;16219;42.864;23.360;2023-02-26T06:47:27;94567.53;;;15.03;46.28
29169;BME280;16219;42.864;23.360;2023-02-26T06:49:54;94556.63;;;15.15;44.75
29169;BME280;16219;42.864;23.360;2023-02-26T06:52:22;94558.56;;;15.18;45.09
29169;BME280;16219;42.864;23.360;2023-02-26T06:54:50;94556.28;;;15.20;45.76
29169;BME280;16219;42.864;23.360;2023-02-26T06:57:18;94553.72;;;15.34;44.94
29169;BME280;16219;42.864;23.360;2023-02-26T06:59:46;94549.59;;;15.40;45.77
29169;BME280;16219;42.864;23.360;2023-02-26T07:02:15;94562.13;;;15.43;45.01
29169;BME280;16219;42.864;23.360;2023-02-26T07:04:43;94565.94;;;15.46;44.51
29169;BME280;16219;42.864;23.360;2023-02-26T07:07:11;94560.25;;;15.44;44.27
29169;BME280;16219;42.864;23.360;2023-02-26T07:09:39;94575.44;;;15.47;45.06
29169;BME280;16219;42.864;23.360;2023-02-26T07:12:07;94545.84;;;15.48;44.00
29169;BME280;16219;42.864;23.360;2023-02-26T07:14:35;94564.13;;;15.61;43.91
29169;BME280;16219;42.864;23.360;2023-02-26T07:17:03;94555.75;;;15.59;43.95
29169;BME280;16219;42.864;23.360;2023-02-26T07:19:30;94570.59;;;15.60;43.74
29169;BME280;16219;42.864;23.360;2023-02-26T07:21:57;94555.75;;;15.59;43.49
29169;BME280;16219;42.864;23.360;2023-02-26T07:24:24;94561.06;;;15.59;41.94
29169;BME280;16219;42.864;23.360;2023-02-26T07:26:51;94551.56;;;15.58;43.11
29169;BME280;16219;42.864;23.360;2023-02-26T07:29:18;94549.66;;;15.55;42.76
29169;BME280;16219;42.864;23.360;2023-02-26T07:31:47;94566.75;;;15.57;42.82
29169;BME280;16219;42.864;23.360;2023-02-26T07:34:14;94585.41;;;15.61;43.45
29169;BME280;16219;42.864;23.360;2023-02-26T07:36:41;94581.56;;;15.58;43.48
29169;BME280;16219;42.864;23.360;2023-02-26T07:39:10;94586.50;;;15.53;43.23
29169;BME280;16219;42.864;23.360;2023-02-26T07:41:37;94578.50;;;15.53;43.14
29169;BME280;16219;42.864;23.360;2023-02-26T07:44:13;94592.19;;;15.55;43.03
29169;BME280;16219;42.864;23.360;2023-02-26T07:46:40;94585.69;;;15.48;42.26
29169;BME280;16219;42.864;23.360;2023-02-26T07:49:09;94590.63;;;15.50;42.65
29169;BME280;16219;42.864;23.360;2023-02-26T07:51:36;94581.91;;;15.49;42.41
29169;BME280;16219;42.864;23.360;2023-02-26T07:54:04;94576.75;;;15.67;42.05
29169;BME280;16219;42.864;23.360;2023-02-26T07:56:31;94535.97;;;15.53;42.69
29169;BME280;16219;42.864;23.360;2023-02-26T07:58:58;94592.41;;;15.90;43.17
29169;BME280;16219;42.864;23.360;2023-02-26T08:01:25;94583.69;;;15.97;42.74
29169;BME280;16219;42.864;23.360;2023-02-26T08:03:52;94576.81;;;15.85;43.06
29169;BME280;16219;42.864;23.360;2023-02-26T08:06:21;94578.72;;;15.88;43.62
29169;BME280;16219;42.864;23.360;2023-02-26T08:08:48;94574.19;;;15.92;44.19
29169;BME280;16219;42.864;23.360;2023-02-26T08:11:15;94575.72;;;15.97;43.57
29169;BME280;16219;42.864;23.360;2023-02-26T08:13:42;94578.03;;;16.02;44.57
29169;BME280;16219;42.864;23.360;2023-02-26T08:16:12;94569.72;;;16.14;44.25
29169;BME280;16219;42.864;23.360;2023-02-26T08:18:39;94575.06;;;16.25;43.14
29169;BME280;16219;42.864;23.360;2023-02-26T08:21:06;94569.38;;;16.30;43.11
29169;BME280;16219;42.864;23.360;2023-02-26T08:23:35;94580.81;;;16.41;42.56
29169;BME280;16219;42.864;23.360;2023-02-26T08:26:05;94574.34;;;16.42;42.12
29169;BME280;16219;42.864;23.360;2023-02-26T08:28:32;94588.41;;;16.39;40.92
29169;BME280;16219;42.864;23.360;2023-02-26T08:31:00;94585.81;;;16.57;41.71
29169;BME280;16219;42.864;23.360;2023-02-26T08:33:29;94574.41;;;16.71;41.35
29169;BME280;16219;42.864;23.360;2023-02-26T08:35:56;94572.13;;;16.73;40.27
29169;BME280;16219;42.864;23.360;2023-02-26T08:38:23;94583.22;;;16.82;40.25
29169;BME280;16219;42.864;23.360;2023-02-26T08:40:52;94579.03;;;16.92;40.29
29169;BME280;16219;42.864;23.360;2023-02-26T08:43:19;94586.25;;;17.02;41.09
29169;BME280;16219;42.864;23.360;2023-02-26T08:45:47;94592.72;;;16.97;41.23
29169;BME280;16219;42.864;23.360;2023-02-26T08:48:14;94582.81;;;16.98;39.73
29169;BME280;16219;42.864;23.360;2023-02-26T08:50:41;94585.47;;;17.19;40.69
29169;BME280;16219;42.864;23.360;2023-02-26T08:53:09;94588.16;;;17.34;39.49
29169;BME280;16219;42.864;23.360;2023-02-26T08:55:36;94584.34;;;17.31;39.41
29169;BME280;16219;42.864;23.360;2023-02-26T08:58:04;94593.47;;;17.44;40.10
29169;BME280;16219;42.864;23.360;2023-02-26T09:00:32;94575.56;;;17.48;39.26
29169;BME280;16219;42.864;23.360;2023-02-26T09:02:59;94572.47;;;17.68;39.10
29169;BME280;16219;42.864;23.360;2023-02-26T09:05:26;94571.31;;;17.72;39.03
29169;BME280;16219;42.864;23.360;2023-02-26T09:07:53;94551.16;;;17.64;38.32
29169;BME280;16219;42.864;23.360;2023-02-26T09:10:20;94578.97;;;17.74;39.72
29169;BME280;16219;42.864;23.360;2023-02-26T09:12:47;94561.44;;;17.77;38.07
29169;BME280;16219;42.864;23.360;2023-02-26T09:15:16;94570.59;;;17.76;39.04
29169;BME280;16219;42.864;23.360;2023-02-26T09:17:45;94562.16;;;17.73;39.02
29169;BME280;16219;42.864;23.360;2023-02-26T09:20:13;94573.59;;;17.67;39.87
29169;BME280;16219;42.864;23.360;2023-02-26T09:22:41;94557.59;;;17.78;39.68
29169;BME280;16219;42.864;23.360;2023-02-26T09:25:09;94559.91;;;17.72;38.88
29169;BME280;16219;42.864;23.360;2023-02-26T09:27:36;94567.47;;;17.88;39.74
29169;BME280;16219;42.864;23.360;2023-02-26T09:30:05;94512.69;;;17.55;40.19
29169;BME280;16219;42.864;23.360;2023-02-26T09:32:33;94556.09;;;17.80;39.15
29169;BME280;16219;42.864;23.360;2023-02-26T09:35:01;94547.72;;;17.64;38.64
29169;BME280;16219;42.864;23.360;2023-02-26T09:37:29;94553.06;;;17.57;38.30
29169;BME280;16219;42.864;23.360;2023-02-26T09:39:56;94554.56;;;17.65;39.79
29169;BME280;16219;42.864;23.360;2023-02-26T09:42:32;94556.03;;;17.87;39.83
29169;BME280;16219;42.864;23.360;2023-02-26T09:45:03;94534.34;;;17.85;37.92
29169;BME280;16219;42.864;23.360;2023-02-26T09:47:36;94554.94;;;17.81;39.01
29169;BME280;16219;42.864;23.360;2023-02-26T09:50:14;94543.09;;;17.82;38.83
29169;BME280;16219;42.864;23.360;2023-02-26T09:52:48;94563.69;;;17.89;39.85
29169;BME280;16219;42.864;23.360;2023-02-26T09:55:23;94540.03;;;17.94;38.02
29169;BME280;16219;42.864;23.360;2023-02-26T09:57:56;94561.78;;;17.89;37.63
29169;BME280;16219;42.864;23.360;2023-02-26T10:00:30;94579.63;;;17.99;38.60
29169;BME280;16219;42.864;23.360;2023-02-26T10:03:08;94557.91;;;18.01;37.64
29169;BME280;16219;42.864;23.360;2023-02-26T10:05:46;94566.69;;;18.02;38.67
29169;BME280;16219;42.864;23.360;2023-02-26T10:08:22;94581.16;;;18.01;36.87
29169;BME280;16219;42.864;23.360;2023-02-26T10:11:01;94558.34;;;17.85;36.79
29169;BME280;16219;42.864;23.360;2023-02-26T10:13:36;94576.63;;;17.90;37.27
29169;BME280;16219;42.864;23.360;2023-02-26T10:16:10;94565.94;;;17.94;37.94
29169;BME280;16219;42.864;23.360;2023-02-26T10:18:45;94540.03;;;17.94;36.82
29169;BME280;16219;42.864;23.360;2023-02-26T10:21:20;94564.81;;;17.91;38.13
29169;BME280;16219;42.864;23.360;2023-02-26T10:23:51;94585.03;;;17.85;37.99
29169;BME280;16219;42.864;23.360;2023-02-26T10:26:23;94570.53;;;17.86;37.37
29169;BME280;16219;42.864;23.360;2023-02-26T10:28:56;94591.91;;;17.68;39.25
29169;BME280;16219;42.864;23.360;2023-02-26T10:31:31;94592.66;;;17.65;38.30
29169;BME280;16219;42.864;23.360;2023-02-26T10:34:09;94594.22;;;17.63;38.61
29169;BME280;16219;42.864;23.360;2023-02-26T10:36:46;94573.28;;;17.43;38.13
29169;BME280;16219;42.864;23.360;2023-02-26T10:39:23;94571.34;;;17.58;38.93
29169;BME280;16219;42.864;23.360;2023-02-26T10:41:53;94567.56;;;17.48;39.20
29169;BME280;16219;42.864;23.360;2023-02-26T10:44:27;94563.00;;;17.35;39.12
29169;BME280;16219;42.864;23.360;2023-02-26T10:47:01;94567.59;;;17.23;40.64
29169;BME280;16219;42.864;23.360;2023-02-26T10:49:44;94573.28;;;17.36;39.91
29169;BME280;16219;42.864;23.360;2023-02-26T10:52:17;94571.38;;;17.40;38.95
29169;BME280;16219;42.864;23.360;2023-02-26T10:54:53;94556.91;;;17.34;39.77
29169;BME280;16219;42.864;23.360;2023-02-26T10:57:24;94559.97;;;17.29;39.54
29169;BME280;16219;42.864;23.360;2023-02-26T10:59:53;94574.81;;;17.23;40.41
29169;BME280;16219;42.864;23.360;2023-02-26T11:02:36;94568.38;;;17.13;40.03
29169;BME280;16219;42.864;23.360;2023-02-26T11:05:14;94561.50;;;17.09;40.92
29169;BME280;16219;42.864;23.360;2023-02-26T11:07:41;94550.47;;;17.21;39.88
29169;BME280;16219;42.864;23.360;2023-02-26T11:10:16;94553.91;;;17.25;40.23
29169;BME280;16219;42.864;23.360;2023-02-26T11:12:43;94547.03;;;17.17;41.00
29169;BME280;16219;42.864;23.360;2023-02-26T11:15:13;94552.75;;;17.19;41.27
29169;BME280;16219;42.864;23.360;2023-02-26T11:17:41;94539.81;;;17.14;40.93
29169;BME280;16219;42.864;23.360;2023-02-26T11:20:17;94550.47;;;17.03;40.50
29169;BME280;16219;42.864;23.360;2023-02-26T11:22:49;94554.66;;;17.01;40.95
29169;BME280;16219;42.864;23.360;2023-02-26T11:25:22;94549.72;;;16.95;41.57
29169;BME280;16219;42.864;23.360;2023-02-26T11:28:02;94549.31;;;16.93;41.47
29169;BME280;16219;42.864;23.360;2023-02-26T11:30:35;94543.63;;;16.91;41.08
29169;BME280;16219;42.864;23.360;2023-02-26T11:33:16;94540.59;;;17.00;40.85
29169;BME280;16219;42.864;23.360;2023-02-26T11:35:46;94557.69;;;16.99;42.02
29169;BME280;16219;42.864;23.360;2023-02-26T11:38:21;94565.31;;;16.93;41.95
29169;BME280;16219;42.864;23.360;2023-02-26T11:40:54;94563.03;;;16.88;41.28
29169;BME280;16219;42.864;23.360;2023-02-26T11:43:24;94579.75;;;16.85;41.71
29169;BME280;16219;42.864;23.360;2023-02-26T11:45:58;94575.56;;;16.77;41.48
29169;BME280;16219;42.864;23.360;2023-02-26T11:48:31;94578.97;;;16.67;42.35
29169;BME280;16219;42.864;23.360;2023-02-26T11:51:04;94569.81;;;16.61;41.70
29169;BME280;16219;42.864;23.360;2023-02-26T11:53:34;94606.34;;;16.67;41.78
29169;BME280;16219;42.864;23.360;2023-02-26T11:56:03;94605.97;;;16.69;41.27
29169;BME280;16219;42.864;23.360;2023-02-26T11:58:36;94615.88;;;16.72;41.59
29169;BME280;16219;42.864;23.360;2023-02-26T12:01:06;94619.28;;;16.69;42.56
29169;BME280;16219;42.864;23.360;2023-02-26T12:03:39;94631.44;;;16.63;42.10
29169;BME280;16219;42.864;23.360;2023-02-26T12:06:15;94621.56;;;16.67;41.93
29169;BME280;16219;42.864;23.360;2023-02-26T12:08:44;94637.56;;;16.67;41.61
29169;BME280;16219;42.864;23.360;2023-02-26T12:11:26;94647.47;;;16.70;42.97
29169;BME280;16219;42.864;23.360;2023-02-26T12:14:04;94653.59;;;16.74;42.91
29169;BME280;16219;42.864;23.360;2023-02-26T12:16:41;94647.88;;;16.79;41.97
29169;BME280;16219;42.864;23.360;2023-02-26T12:19:34;94652.78;;;16.73;42.59
29169;BME280;16219;42.864;23.360;2023-02-26T12:22:26;94626.94;;;16.74;43.50
29169;BME280;16219;42.864;23.360;2023-02-26T12:25:17;94622.31;;;16.64;43.16
29169;BME280;16219;42.864;23.360;2023-02-26T12:28:05;94610.91;;;16.60;43.31
29169;BME280;16219;42.864;23.360;2023-02-26T12:31:05;94634.50;;;16.61;43.68
29169;BME280;16219;42.864;23.360;2023-02-26T12:33:47;94620.78;;;16.56;43.97
29169;BME280;16219;42.864;23.360;2023-02-26T12:36:25;94608.22;;;16.53;44.55
29169;BME280;16219;42.864;23.360;2023-02-26T12:39:05;94620.81;;;16.63;44.42
29169;BME280;16219;42.864;23.360;2023-02-26T12:41:46;94600.22;;;16.56;44.32
29169;BME280;16219;42.864;23.360;2023-02-26T12:44:41;94621.91;;;16.55;45.49
29169;BME280;16219;42.864;23.360;2023-02-26T12:47:27;94616.22;;;16.53;43.67
29169;BME280;16219;42.864;23.360;2023-02-26T12:50:18;94600.63;;;16.55;44.46
29169;BME280;16219;42.864;23.360;2023-02-26T12:53:04;94597.97;;;16.55;43.54
29169;BME280;16219;42.864;23.360;2023-02-26T12:55:47;94578.94;;;16.53;45.17
29169;BME280;16219;42.864;23.360;2023-02-26T12:58:37;94568.31;;;16.53;45.15
29169;BME280;16219;42.864;23.360;2023-02-26T15:32:36;94667.78;;;16.16;49.86
29169;BME280;16219;42.864;23.360;2023-02-26T15:35:14;94670.72;;;16.00;50.11
29169;BME280;16219;42.864;23.360;2023-02-26T15:37:41;94665.69;;;15.84;50.08
